Time;durP1;ratioP1;P1;durP2;ratioP2;P2;SDS_P1;SDS_P2;PMS_P1;PMS_P2;Temp;Humidity;BMP_temperature;BMP_pressure;BME280_temperature;BME280_humidity;BME280_pressure;Samples;Min_cycle;Max_cycle;Signal;HPM_P1;HPM_P2
2022/07/26 00:02:21;;;;;;;15.00;3.30;;;19.30;99.90;;;;;;5048415;28;20029;-69
2022/07/26 00:04:47;;;;;;;18.08;3.08;;;19.20;99.90;;;;;;5048839;28;20160;-69
2022/07/26 00:07:12;;;;;;;15.95;3.38;;;19.40;99.90;;;;;;5052022;28;20462;-68
2022/07/26 00:09:38;;;;;;;17.02;3.00;;;19.30;99.90;;;;;;5043022;28;20041;-69
2022/07/26 00:12:04;;;;;;;22.65;4.25;;;19.30;99.90;;;;;;5044847;28;21460;-68
2022/07/26 00:14:29;;;;;;;15.07;2.70;;;19.20;99.90;;;;;;5043992;28;20045;-68
2022/07/26 00:16:57;;;;;;;14.23;3.17;;;19.30;99.90;;;;;;5049013;28;20041;-68
2022/07/26 00:19:23;;;;;;;16.13;3.78;;;19.20;99.90;;;;;;5047279;28;20047;-68
2022/07/26 00:22:32;;;;;;;14.13;2.72;;;19.20;99.90;;;;;;5055343;28;20128;-69
2022/07/26 00:24:34;;;;;;;12.55;3.00;;;19.30;99.90;;;;;;5048284;28;20137;-68
2022/07/26 00:26:59;;;;;;;15.52;3.28;;;19.20;99.90;;;;;;5052345;28;20128;-68
2022/07/26 00:29:25;;;;;;;9.98;2.13;;;19.10;99.90;;;;;;5053247;28;20091;-68
2022/07/26 00:31:50;;;;;;;12.95;2.30;;;19.10;99.90;;;;;;5046666;28;20037;-68
2022/07/26 00:34:18;;;;;;;12.50;2.10;;;19.20;99.90;;;;;;5052334;28;20104;-68
2022/07/26 00:36:44;;;;;;;9.65;2.17;;;19.20;99.90;;;;;;5046114;28;20037;-68
2022/07/26 00:39:09;;;;;;;13.65;3.35;;;19.10;99.90;;;;;;5050952;28;20049;-68
2022/07/26 00:41:35;;;;;;;9.98;2.47;;;19.10;99.90;;;;;;5050272;28;20107;-68
2022/07/26 00:44:01;;;;;;;10.25;2.05;;;19.10;99.90;;;;;;5046452;28;20487;-68
2022/07/26 00:46:26;;;;;;;8.75;1.80;;;19.00;99.90;;;;;;5048915;28;20044;-68
2022/07/26 00:48:52;;;;;;;14.55;1.63;;;19.10;99.90;;;;;;5052759;28;20037;-68
2022/07/26 00:51:19;;;;;;;10.43;1.92;;;19.10;99.90;;;;;;5051383;28;20049;-68
2022/07/26 00:53:45;;;;;;;9.68;1.90;;;19.40;99.90;;;;;;5052194;28;20045;-68
2022/07/26 00:56:13;;;;;;;8.50;1.90;;;19.10;99.90;;;;;;5047530;28;20465;-68
2022/07/26 00:58:39;;;;;;;6.75;1.67;;;18.80;99.90;;;;;;5054518;28;20053;-68
2022/07/26 01:01:08;;;;;;;9.40;1.77;;;19.20;99.90;;;;;;5047743;28;20045;-68
2022/07/26 01:03:34;;;;;;;6.28;1.40;;;19.10;99.90;;;;;;5054396;28;20030;-68
2022/07/26 01:06:00;;;;;;;13.90;3.50;;;18.80;99.90;;;;;;5052881;28;20052;-68
2022/07/26 01:08:25;;;;;;;7.75;1.77;;;18.90;99.90;;;;;;5048709;28;20033;-68
2022/07/26 01:10:52;;;;;;;9.98;1.80;;;18.80;99.90;;;;;;5045515;28;20068;-68
2022/07/26 01:13:24;;;;;;;7.88;1.35;;;19.00;99.90;;;;;;5046353;28;20037;-68
2022/07/26 01:15:49;;;;;;;9.65;2.33;;;19.00;99.90;;;;;;5045969;28;20399;-68
2022/07/26 01:18:15;;;;;;;9.23;1.45;;;18.80;99.90;;;;;;5049513;28;20033;-68
2022/07/26 01:20:42;;;;;;;3.80;1.30;;;18.90;99.90;;;;;;5043533;28;20402;-68
2022/07/26 01:23:08;;;;;;;8.93;1.73;;;18.70;99.90;;;;;;5052859;28;20043;-68
2022/07/26 01:25:41;;;;;;;5.60;1.27;;;18.90;99.90;;;;;;5048343;28;20135;-68
2022/07/26 01:28:06;;;;;;;6.75;1.33;;;18.60;99.90;;;;;;5053360;28;20040;-68
2022/07/26 01:30:32;;;;;;;5.63;1.10;;;19.00;99.90;;;;;;5043620;28;20368;-68
2022/07/26 01:33:05;;;;;;;8.05;1.55;;;18.90;99.90;;;;;;5042065;28;20035;-68
2022/07/26 01:35:30;;;;;;;4.60;1.40;;;18.60;99.90;;;;;;5042201;28;20029;-68
2022/07/26 01:37:56;;;;;;;10.60;2.20;;;18.70;99.90;;;;;;5041788;28;20487;-68
2022/07/26 01:40:22;;;;;;;7.68;1.70;;;18.70;99.90;;;;;;5041130;28;20467;-68
2022/07/26 01:42:50;;;;;;;9.13;1.50;;;18.70;99.90;;;;;;5052119;28;20458;-68
2022/07/26 01:45:15;;;;;;;4.63;1.20;;;18.90;99.90;;;;;;5046074;28;20124;-68
2022/07/26 01:47:41;;;;;;;5.80;1.52;;;18.90;99.90;;;;;;5039643;28;20132;-68
2022/07/26 01:50:09;;;;;;;8.82;1.48;;;18.70;99.90;;;;;;5043604;28;20123;-68
2022/07/26 01:52:36;;;;;;;6.18;1.58;;;18.80;99.90;;;;;;5049172;28;20120;-68
2022/07/26 01:55:02;;;;;;;5.30;1.90;;;18.70;99.90;;;;;;5043880;28;20095;-68
2022/07/26 01:57:27;;;;;;;3.78;1.40;;;18.60;99.90;;;;;;5041597;28;20099;-68
2022/07/26 01:59:54;;;;;;;3.50;1.45;;;18.50;99.90;;;;;;5047027;28;20453;-68
2022/07/26 02:02:19;;;;;;;5.82;1.92;;;18.60;99.90;;;;;;5040414;28;20037;-68
2022/07/26 02:04:57;;;;;;;2.60;1.20;;;18.60;99.90;;;;;;5044061;28;20037;-68
2022/07/26 02:07:26;;;;;;;5.47;1.70;;;18.60;99.90;;;;;;5040457;28;20080;-68
2022/07/26 02:09:52;;;;;;;6.40;1.40;;;18.70;99.90;;;;;;5046983;28;20044;-68
2022/07/26 02:12:18;;;;;;;5.85;1.80;;;18.60;99.90;;;;;;5044960;28;20037;-68
2022/07/26 02:14:43;;;;;;;8.13;1.60;;;18.50;99.90;;;;;;5043283;28;20034;-68
2022/07/26 02:17:09;;;;;;;16.13;2.15;;;18.70;99.90;;;;;;5040999;28;20071;-68
2022/07/26 02:19:34;;;;;;;8.57;1.90;;;18.40;99.90;;;;;;5049616;28;20491;-68
2022/07/26 02:22:00;;;;;;;3.83;1.52;;;18.70;99.90;;;;;;5038700;28;20037;-68
2022/07/26 02:24:28;;;;;;;7.78;2.00;;;18.60;99.90;;;;;;5039522;28;20037;-68
2022/07/26 02:26:57;;;;;;;3.75;1.42;;;18.70;99.90;;;;;;5050107;28;20052;-68
2022/07/26 02:29:23;;;;;;;5.70;1.85;;;18.40;99.90;;;;;;5040020;28;20368;-68
2022/07/26 02:31:52;;;;;;;3.88;1.70;;;18.40;99.90;;;;;;5042620;28;20045;-68
2022/07/26 02:34:18;;;;;;;4.35;1.92;;;19.60;99.90;;;;;;5047133;28;20025;-68
2022/07/26 02:36:44;;;;;;;5.03;1.80;;;18.20;99.90;;;;;;5043948;28;20056;-68
2022/07/26 02:39:11;;;;;;;5.00;1.80;;;18.60;99.90;;;;;;5036364;28;20405;-68
2022/07/26 02:41:36;;;;;;;5.88;1.92;;;18.40;99.90;;;;;;5040880;28;20033;-68
2022/07/26 02:44:02;;;;;;;5.13;2.17;;;18.30;99.90;;;;;;5042180;28;20178;-68
2022/07/26 02:46:28;;;;;;;3.72;2.05;;;18.30;99.90;;;;;;5045817;28;20041;-68
2022/07/26 02:48:53;;;;;;;6.47;2.92;;;18.30;99.90;;;;;;5046109;28;20037;-68
2022/07/26 02:51:19;;;;;;;5.20;2.00;;;18.40;99.90;;;;;;5049057;28;20116;-68
2022/07/26 02:53:44;;;;;;;9.35;3.08;;;18.60;99.90;;;;;;5043109;28;20032;-68
2022/07/26 02:56:10;;;;;;;5.00;1.80;;;18.20;99.90;;;;;;5042932;28;20095;-68
2022/07/26 02:58:36;;;;;;;5.88;1.98;;;18.20;99.90;;;;;;5036124;28;20059;-68
2022/07/26 03:01:03;;;;;;;3.42;1.60;;;18.20;99.90;;;;;;5034948;28;20045;-68
2022/07/26 03:03:31;;;;;;;4.63;1.50;;;18.40;99.90;;;;;;5041075;28;20116;-68
2022/07/26 03:05:56;;;;;;;4.32;1.50;;;18.40;99.90;;;;;;5048568;28;20116;-68
2022/07/26 03:08:22;;;;;;;7.63;1.75;;;18.50;99.90;;;;;;5042460;28;20451;-68
2022/07/26 03:10:48;;;;;;;4.90;1.65;;;18.50;99.90;;;;;;5038928;28;20395;-68
2022/07/26 03:13:15;;;;;;;5.40;1.92;;;18.20;99.90;;;;;;5024840;28;20117;-68
2022/07/26 03:15:41;;;;;;;5.32;1.80;;;18.10;99.90;;;;;;5046614;28;20095;-68
2022/07/26 03:18:07;;;;;;;4.55;1.50;;;18.10;99.90;;;;;;5037352;28;20033;-68
2022/07/26 03:20:32;;;;;;;5.00;1.35;;;18.10;99.90;;;;;;5046379;28;20120;-68
2022/07/26 03:22:58;;;;;;;6.90;1.40;;;18.20;99.90;;;;;;5045673;28;20037;-68
2022/07/26 03:25:26;;;;;;;5.97;1.20;;;18.10;99.90;;;;;;5036175;28;20029;-68
2022/07/26 03:27:57;;;;;;;4.63;1.50;;;17.90;99.90;;;;;;5032743;28;20104;-68
2022/07/26 03:30:23;;;;;;;5.47;1.85;;;18.00;99.90;;;;;;5041070;28;20038;-68
2022/07/26 03:32:49;;;;;;;8.02;1.27;;;18.10;99.90;;;;;;5048013;28;20041;-68
2022/07/26 03:35:14;;;;;;;4.93;1.30;;;18.10;99.90;;;;;;5048537;28;20407;-68
2022/07/26 03:37:40;;;;;;;11.18;2.35;;;18.20;99.90;;;;;;5043182;28;20049;-68
2022/07/26 03:40:07;;;;;;;4.30;1.45;;;17.90;99.90;;;;;;5046813;28;20033;-68
2022/07/26 03:42:33;;;;;;;6.38;1.45;;;17.90;99.90;;;;;;5042921;28;20059;-68
2022/07/26 03:44:59;;;;;;;9.32;1.42;;;18.00;99.90;;;;;;5037446;28;20125;-68
2022/07/26 03:47:25;;;;;;;9.57;1.65;;;18.00;99.90;;;;;;5044854;28;20124;-68
2022/07/26 03:49:50;;;;;;;8.27;1.42;;;18.20;99.90;;;;;;5044566;28;20044;-68
2022/07/26 03:52:16;;;;;;;6.43;1.60;;;18.00;99.90;;;;;;5046486;28;20160;-68
2022/07/26 03:54:42;;;;;;;4.70;1.50;;;18.10;99.90;;;;;;5039901;28;20112;-68
2022/07/26 03:57:07;;;;;;;3.28;1.38;;;18.00;99.90;;;;;;5039263;28;20057;-68
2022/07/26 03:59:33;;;;;;;9.38;1.67;;;17.90;99.90;;;;;;5051231;28;20041;-68
2022/07/26 04:02:06;;;;;;;7.72;1.90;;;17.90;99.90;;;;;;5040780;28;20042;-68
2022/07/26 04:04:31;;;;;;;6.70;1.90;;;18.00;99.90;;;;;;5044776;28;20407;-68
2022/07/26 04:06:57;;;;;;;5.38;1.48;;;17.80;99.90;;;;;;5040827;28;20049;-68
2022/07/26 04:09:22;;;;;;;6.25;1.33;;;18.10;99.90;;;;;;5046603;28;20487;-68
2022/07/26 04:11:48;;;;;;;6.25;1.13;;;18.10;99.90;;;;;;5050690;28;20427;-68
2022/07/26 04:14:14;;;;;;;6.68;1.38;;;18.20;99.90;;;;;;5040142;28;20120;-68
2022/07/26 04:16:40;;;;;;;5.85;1.50;;;17.90;99.90;;;;;;5048166;28;20398;-68
2022/07/26 04:19:06;;;;;;;6.68;1.30;;;17.90;99.90;;;;;;5050139;28;20069;-68
2022/07/26 04:21:32;;;;;;;16.63;8.73;;;17.70;99.90;;;;;;5049258;28;20052;-65
2022/07/26 04:23:57;;;;;;;52.05;30.20;;;17.90;99.90;;;;;;5045780;28;20038;-65
2022/07/26 04:26:23;;;;;;;10.80;3.88;;;18.00;99.90;;;;;;5040540;28;20442;-66
2022/07/26 04:28:49;;;;;;;14.15;3.50;;;17.90;99.90;;;;;;5036991;28;20099;-64
2022/07/26 04:31:14;;;;;;;5.10;2.03;;;18.00;99.90;;;;;;5042770;28;20419;-64
2022/07/26 04:33:40;;;;;;;7.80;2.25;;;17.80;99.90;;;;;;5031896;28;20114;-64
2022/07/26 04:36:06;;;;;;;6.55;1.10;;;17.90;99.90;;;;;;5043886;28;20415;-64
2022/07/26 04:38:31;;;;;;;7.97;1.08;;;17.80;99.90;;;;;;5027316;28;20127;-64
2022/07/26 04:40:57;;;;;;;5.13;1.08;;;18.20;99.90;;;;;;5049214;28;20029;-64
2022/07/26 04:43:23;;;;;;;9.57;1.27;;;18.10;99.90;;;;;;5042417;28;20052;-63
2022/07/26 04:45:49;;;;;;;7.32;0.95;;;17.90;99.90;;;;;;5042645;28;20040;-64
2022/07/26 04:48:17;;;;;;;9.18;1.38;;;18.00;99.90;;;;;;5044713;28;20029;-64
2022/07/26 04:50:43;;;;;;;3.75;1.00;;;18.10;99.90;;;;;;5048108;28;20043;-64
2022/07/26 04:53:12;;;;;;;5.38;1.20;;;17.90;99.90;;;;;;5050946;28;20029;-64
2022/07/26 04:55:38;;;;;;;6.07;1.00;;;18.10;99.90;;;;;;5048373;28;20117;-64
2022/07/26 04:58:04;;;;;;;5.70;1.08;;;17.90;99.90;;;;;;5050631;28;20426;-64
2022/07/26 05:00:30;;;;;;;5.80;1.10;;;18.00;99.90;;;;;;5046963;28;20045;-64
2022/07/26 05:02:57;;;;;;;6.47;1.20;;;17.90;99.90;;;;;;5046101;28;20037;-64
2022/07/26 05:05:25;;;;;;;6.03;0.70;;;17.80;99.90;;;;;;5044554;28;20369;-64
2022/07/26 05:07:53;;;;;;;5.38;0.88;;;17.90;99.90;;;;;;5041039;28;20041;-64
2022/07/26 05:10:20;;;;;;;5.93;1.25;;;17.90;99.90;;;;;;5043170;28;20040;-64
2022/07/26 05:12:46;;;;;;;5.88;0.85;;;17.60;99.90;;;;;;5047894;28;20496;-64
2022/07/26 05:15:12;;;;;;;2.40;0.60;;;17.90;99.90;;;;;;5036816;28;20041;-64
2022/07/26 05:17:39;;;;;;;4.32;0.80;;;17.70;99.90;;;;;;5043089;28;20483;-63
2022/07/26 05:20:06;;;;;;;6.93;1.08;;;18.00;99.90;;;;;;5049841;28;20061;-64
2022/07/26 05:22:33;;;;;;;8.82;1.35;;;17.70;99.90;;;;;;5046586;28;20049;-64
2022/07/26 05:24:58;;;;;;;7.72;0.77;;;17.70;99.90;;;;;;5037461;28;20084;-64
2022/07/26 05:27:24;;;;;;;5.30;0.50;;;17.60;99.90;;;;;;5043429;28;20434;-64
2022/07/26 05:29:51;;;;;;;4.47;0.63;;;17.80;99.90;;;;;;5044493;28;20506;-64
2022/07/26 05:32:17;;;;;;;4.75;0.82;;;17.70;99.90;;;;;;5037496;28;20033;-64
2022/07/26 05:34:43;;;;;;;9.55;0.60;;;17.70;99.90;;;;;;5049889;28;20094;-64
2022/07/26 05:37:08;;;;;;;5.38;0.70;;;17.60;99.90;;;;;;5040775;28;20045;-64
2022/07/26 05:39:34;;;;;;;8.27;0.70;;;17.60;99.90;;;;;;5049849;28;20102;-64
2022/07/26 05:42:00;;;;;;;5.40;1.17;;;17.70;99.90;;;;;;5046528;28;20053;-64
2022/07/26 05:44:28;;;;;;;3.70;0.73;;;17.70;99.90;;;;;;5044400;28;20033;-64
2022/07/26 05:46:53;;;;;;;3.97;0.73;;;17.50;99.90;;;;;;5051812;28;20502;-66
2022/07/26 05:49:19;;;;;;;42.30;25.55;;;17.90;99.90;;;;;;5042150;28;20030;-65
2022/07/26 05:51:44;;;;;;;6.82;2.80;;;17.70;99.90;;;;;;5026270;28;20490;-66
2022/07/26 05:54:10;;;;;;;71.65;49.60;;;17.60;99.90;;;;;;5034316;28;20399;-65
2022/07/26 05:56:35;;;;;;;5.63;1.80;;;17.70;99.90;;;;;;5050327;28;20045;-65
2022/07/26 05:59:01;;;;;;;5.45;0.85;;;17.70;99.90;;;;;;5047819;28;20492;-64
2022/07/26 06:01:31;;;;;;;7.00;0.77;;;18.00;99.90;;;;;;5048729;28;20075;-64
2022/07/26 06:04:00;;;;;;;6.30;0.75;;;17.60;99.90;;;;;;5038289;28;20459;-64
2022/07/26 06:06:25;;;;;;;4.43;0.77;;;17.60;99.90;;;;;;5035770;28;20183;-65
2022/07/26 06:08:51;;;;;;;64.00;38.22;;;17.70;99.90;;;;;;5051048;28;20116;-66
2022/07/26 06:11:16;;;;;;;62.47;42.50;;;17.60;99.90;;;;;;5044090;28;20037;-63
2022/07/26 06:13:42;;;;;;;22.92;11.98;;;17.90;99.90;;;;;;5042986;28;20502;-64
2022/07/26 06:16:08;;;;;;;9.77;3.17;;;17.70;99.90;;;;;;5040450;28;20041;-62
2022/07/26 06:18:33;;;;;;;6.47;1.00;;;17.90;99.90;;;;;;5042373;28;20170;-63
2022/07/26 06:20:59;;;;;;;4.28;1.10;;;17.70;99.90;;;;;;5038926;28;20099;-63
2022/07/26 06:23:25;;;;;;;2.67;0.50;;;17.90;99.90;;;;;;5049707;28;20409;-64
2022/07/26 06:25:50;;;;;;;9.55;2.70;;;17.80;99.90;;;;;;5049644;28;20528;-65
2022/07/26 06:28:16;;;;;;;4.28;0.95;;;17.80;99.90;;;;;;5047581;28;20044;-61
2022/07/26 06:30:43;;;;;;;18.75;10.55;;;17.70;99.90;;;;;;5046947;28;20115;-60
2022/07/26 06:33:09;;;;;;;4.07;0.95;;;17.80;99.90;;;;;;5042139;28;20079;-59
2022/07/26 06:35:36;;;;;;;8.05;0.70;;;17.80;99.90;;;;;;5046644;28;20505;-60
2022/07/26 06:38:03;;;;;;;1.55;0.30;;;17.70;99.90;;;;;;5048231;28;20557;-59
2022/07/26 06:40:29;;;;;;;3.95;0.68;;;17.80;99.90;;;;;;5049743;28;20105;-60
2022/07/26 06:42:55;;;;;;;5.88;0.93;;;17.80;99.90;;;;;;5053377;28;20108;-59
2022/07/26 06:45:23;;;;;;;7.55;0.50;;;17.80;99.90;;;;;;5053129;28;20071;-59
2022/07/26 06:47:49;;;;;;;6.57;0.60;;;17.80;99.90;;;;;;5044489;28;20042;-59
2022/07/26 06:50:14;;;;;;;7.80;0.80;;;17.80;99.90;;;;;;5047514;28;20556;-59
2022/07/26 06:52:40;;;;;;;6.00;1.00;;;18.00;99.90;;;;;;5046464;28;20049;-58
2022/07/26 06:55:08;;;;;;;3.25;0.68;;;17.80;99.90;;;;;;5045360;28;20575;-59
2022/07/26 06:57:35;;;;;;;6.63;1.45;;;17.90;99.90;;;;;;5052482;28;20064;-59
2022/07/26 07:00:02;;;;;;;4.80;0.70;;;18.00;99.90;;;;;;5052836;28;20043;-59
2022/07/26 07:02:28;;;;;;;4.97;0.95;;;17.80;99.90;;;;;;5052723;28;20059;-59
2022/07/26 07:04:53;;;;;;;3.90;0.65;;;17.80;99.90;;;;;;5043388;28;20037;-59
2022/07/26 07:07:19;;;;;;;3.65;0.50;;;17.80;99.90;;;;;;5032685;28;20044;-60
2022/07/26 07:09:45;;;;;;;5.20;0.55;;;17.80;99.90;;;;;;5040006;28;20162;-60
2022/07/26 07:12:10;;;;;;;11.25;2.83;;;17.80;99.90;;;;;;5052600;28;20041;-58
2022/07/26 07:14:36;;;;;;;6.60;0.95;;;17.90;99.90;;;;;;5052633;28;20105;-59
2022/07/26 07:17:02;;;;;;;4.65;1.85;;;17.70;99.90;;;;;;5052641;28;20060;-58
2022/07/26 07:19:27;;;;;;;5.57;0.80;;;17.70;99.90;;;;;;5052437;28;20040;-60
2022/07/26 07:21:53;;;;;;;5.93;1.05;;;17.50;99.90;;;;;;5051168;28;20379;-58
2022/07/26 07:24:19;;;;;;;5.47;0.60;;;17.50;99.90;;;;;;5052514;28;20127;-60
2022/07/26 07:26:45;;;;;;;3.30;0.50;;;17.50;99.90;;;;;;5052493;28;20124;-58
2022/07/26 07:29:13;;;;;;;5.60;1.10;;;17.30;99.90;;;;;;5051026;28;20554;-60
2022/07/26 07:31:39;;;;;;;3.13;0.63;;;17.50;99.90;;;;;;5038218;28;20494;-59
2022/07/26 07:34:05;;;;;;;3.05;0.43;;;17.60;99.90;;;;;;5052103;28;20456;-58
2022/07/26 07:36:30;;;;;;;3.72;0.90;;;17.70;99.90;;;;;;5052224;28;20083;-58
2022/07/26 07:38:56;;;;;;;4.90;0.60;;;17.60;99.90;;;;;;5052217;28;20041;-58
2022/07/26 07:41:21;;;;;;;4.72;0.60;;;17.40;99.90;;;;;;5052155;28;20044;-58
2022/07/26 07:43:47;;;;;;;2.83;0.47;;;17.50;99.90;;;;;;5052111;28;20033;-58
2022/07/26 07:46:12;;;;;;;4.65;0.75;;;17.80;99.90;;;;;;5051989;28;20509;-58
2022/07/26 07:48:39;;;;;;;8.15;0.82;;;18.00;99.90;;;;;;5052136;28;20037;-58
2022/07/26 07:51:06;;;;;;;4.22;0.55;;;17.90;99.90;;;;;;5052264;28;20104;-58
2022/07/26 07:53:32;;;;;;;4.97;0.50;;;18.00;99.90;;;;;;5051961;28;20525;-58
2022/07/26 07:55:58;;;;;;;7.22;0.73;;;18.30;99.90;;;;;;5052137;28;20109;-60
2022/07/26 07:58:24;;;;;;;3.10;0.40;;;18.00;99.90;;;;;;5051975;28;20049;-58
2022/07/26 08:00:49;;;;;;;3.40;0.70;;;18.10;99.90;;;;;;5047917;28;20399;-59
2022/07/26 08:03:16;;;;;;;2.72;0.40;;;18.30;99.90;;;;;;5041915;28;20033;-59
2022/07/26 08:05:41;;;;;;;5.75;0.70;;;18.40;99.90;;;;;;5052196;28;20048;-58
2022/07/26 08:08:07;;;;;;;1.45;0.40;;;18.60;99.90;;;;;;5051940;28;20488;-58
2022/07/26 08:10:32;;;;;;;3.83;0.50;;;18.40;99.90;;;;;;5038175;28;20045;-58
2022/07/26 08:12:58;;;;;;;4.97;0.60;;;18.40;99.90;;;;;;5051915;28;20033;-58
2022/07/26 08:15:25;;;;;;;8.57;1.55;;;18.40;99.90;;;;;;5038716;28;20041;-58
2022/07/26 08:17:51;;;;;;;7.45;0.73;;;18.50;99.90;;;;;;5049547;28;20438;-58
2022/07/26 08:20:16;;;;;;;7.88;0.60;;;18.20;99.90;;;;;;5050723;28;20045;-58
2022/07/26 08:22:42;;;;;;;3.70;0.77;;;18.40;99.90;;;;;;5050317;28;20483;-57
2022/07/26 08:25:08;;;;;;;9.52;0.52;;;18.20;99.90;;;;;;5051816;28;20043;-58
2022/07/26 08:27:34;;;;;;;4.28;0.65;;;18.20;99.90;;;;;;5051688;28;20083;-59
2022/07/26 08:30:00;;;;;;;4.32;0.60;;;18.10;99.90;;;;;;5037447;28;20041;-59
2022/07/26 08:32:25;;;;;;;6.95;0.68;;;18.20;99.90;;;;;;5051680;28;20044;-58
2022/07/26 08:34:51;;;;;;;6.20;0.70;;;18.20;99.90;;;;;;5054150;28;20124;-57
2022/07/26 08:37:16;;;;;;;11.15;1.00;;;18.20;99.90;;;;;;5041124;28;20041;-58
2022/07/26 08:39:45;;;;;;;7.45;1.38;;;18.20;99.90;;;;;;5043865;28;20037;-58
2022/07/26 08:42:19;;;;;;;10.15;1.15;;;18.20;99.90;;;;;;5049651;28;20088;-58
2022/07/26 08:44:46;;;;;;;4.25;1.23;;;18.30;99.90;;;;;;5046445;28;20036;-58
2022/07/26 08:47:19;;;;;;;7.45;1.38;;;18.10;99.90;;;;;;5055171;28;20049;-59
2022/07/26 08:49:45;;;;;;;5.78;0.80;;;18.50;99.90;;;;;;5055069;28;20498;-60
2022/07/26 08:52:12;;;;;;;9.43;1.00;;;18.50;99.90;;;;;;5055071;28;20111;-59
2022/07/26 08:54:50;;;;;;;7.45;1.05;;;18.60;99.90;;;;;;5055138;28;20033;-59
2022/07/26 08:57:16;;;;;;;9.20;1.00;;;18.60;99.90;;;;;;5052096;28;20132;-58
2022/07/26 08:59:41;;;;;;;9.50;1.25;;;18.30;99.90;;;;;;5043689;28;20597;-59
2022/07/26 09:02:10;;;;;;;9.23;1.67;;;18.60;99.90;;;;;;5054911;28;20080;-58
2022/07/26 09:04:43;;;;;;;6.18;1.10;;;18.80;99.90;;;;;;5055258;28;20044;-58
2022/07/26 09:07:11;;;;;;;6.85;0.93;;;18.60;99.90;;;;;;5054906;28;20041;-58
2022/07/26 09:09:54;;;;;;;6.47;1.17;;;18.60;99.90;;;;;;5054893;28;20048;-59
2022/07/26 09:12:20;;;;;;;4.35;0.60;;;18.70;99.90;;;;;;5054399;28;20045;-58
2022/07/26 09:14:46;;;;;;;6.85;0.88;;;18.70;99.90;;;;;;5041573;28;20112;-59
2022/07/26 09:17:13;;;;;;;6.55;0.98;;;18.90;99.90;;;;;;5042178;28;20120;-58
2022/07/26 09:19:39;;;;;;;6.28;1.40;;;18.70;99.90;;;;;;5053362;28;20040;-58
2022/07/26 09:22:10;;;;;;;9.18;0.85;;;19.10;99.90;;;;;;5054713;28;20474;-60
2022/07/26 09:24:45;;;;;;;5.82;1.00;;;19.10;99.90;;;;;;5053155;28;20043;-55
2022/07/26 09:27:13;;;;;;;11.40;0.95;;;18.80;99.90;;;;;;5043704;28;20506;-58
2022/07/26 09:29:54;;;;;;;7.15;1.00;;;19.10;99.90;;;;;;5037905;28;20434;-57
2022/07/26 09:32:22;;;;;;;6.88;0.80;;;19.00;99.90;;;;;;5042126;28;20403;-58
2022/07/26 09:34:52;;;;;;;9.30;0.85;;;18.90;99.90;;;;;;5046640;28;20056;-61
2022/07/26 09:37:32;;;;;;;4.90;0.73;;;19.20;99.90;;;;;;5033115;28;20528;-58
2022/07/26 09:40:00;;;;;;;6.57;1.42;;;19.20;99.90;;;;;;5048649;28;20052;-58
2022/07/26 09:42:26;;;;;;;5.10;1.33;;;19.20;99.90;;;;;;5040638;28;20044;-59
2022/07/26 09:44:53;;;;;;;7.40;1.17;;;19.50;99.90;;;;;;5052280;28;20040;-58
2022/07/26 09:47:19;;;;;;;11.32;1.27;;;19.30;99.90;;;;;;5051831;28;20047;-58
2022/07/26 09:49:45;;;;;;;12.32;1.67;;;19.20;99.90;;;;;;5054236;28;20033;-58
2022/07/26 09:52:19;;;;;;;6.43;1.10;;;19.00;99.90;;;;;;5051533;28;20102;-58
2022/07/26 09:54:47;;;;;;;12.10;1.73;;;18.70;99.90;;;;;;5043931;28;20037;-58
2022/07/26 09:57:17;;;;;;;8.88;1.60;;;18.50;99.90;;;;;;5039645;28;20049;-58
2022/07/26 09:59:43;;;;;;;11.98;1.35;;;18.60;99.90;;;;;;5054018;28;20036;-60
2022/07/26 10:02:09;;;;;;;8.23;1.27;;;18.30;99.90;;;;;;5053739;28;20037;-57
2022/07/26 10:04:35;;;;;;;11.15;1.48;;;18.30;99.90;;;;;;5053775;28;20087;-58
2022/07/26 10:07:02;;;;;;;10.05;1.67;;;18.80;99.90;;;;;;5041163;28;20095;-58
2022/07/26 10:09:35;;;;;;;8.10;1.20;;;20.30;99.90;;;;;;5052676;28;20029;-59
2022/07/26 10:12:07;;;;;;;8.80;1.23;;;18.60;99.90;;;;;;5041639;28;20055;-58
2022/07/26 10:14:45;;;;;;;11.27;1.80;;;18.30;99.90;;;;;;5052143;28;20440;-58
2022/07/26 10:17:28;;;;;;;10.38;1.55;;;18.50;99.90;;;;;;5053635;28;20123;-57
2022/07/26 10:20:00;;;;;;;11.45;1.30;;;18.50;99.90;;;;;;5053767;28;20037;-57
2022/07/26 10:22:30;;;;;;;9.68;1.98;;;18.50;99.90;;;;;;5053477;28;20116;-58
2022/07/26 10:25:17;;;;;;;9.65;1.80;;;18.70;99.90;;;;;;5052236;28;20098;-57
2022/07/26 10:27:49;;;;;;;12.05;2.60;;;18.60;99.90;;;;;;5037851;28;20047;-57
2022/07/26 10:30:21;;;;;;;9.25;1.25;;;18.80;99.90;;;;;;5033798;28;20431;-58
2022/07/26 10:32:58;;;;;;;8.88;1.77;;;18.60;99.90;;;;;;5048199;28;20394;-58
2022/07/26 10:35:39;;;;;;;7.50;1.00;;;18.50;99.90;;;;;;5053209;28;20037;-58
2022/07/26 10:38:21;;;;;;;8.60;1.38;;;18.80;99.90;;;;;;5053150;28;20045;-59
2022/07/26 10:41:07;;;;;;;11.55;1.20;;;18.50;99.90;;;;;;5051930;28;20060;-58
2022/07/26 10:43:33;;;;;;;12.88;2.58;;;18.70;99.90;;;;;;5051451;28;20079;-58
2022/07/26 10:46:29;;;;;;;10.40;1.25;;;18.90;99.90;;;;;;5052635;28;20041;-58
2022/07/26 10:48:57;;;;;;;6.18;1.92;;;18.50;99.90;;;;;;5043543;28;20491;-58
2022/07/26 10:51:30;;;;;;;4.45;1.25;;;18.50;99.90;;;;;;5052968;28;20045;-59
2022/07/26 10:54:04;;;;;;;7.10;0.90;;;18.30;99.90;;;;;;5052760;28;20044;-60
2022/07/26 10:56:29;;;;;;;12.35;1.65;;;18.60;99.90;;;;;;5041507;28;20439;-60
2022/07/26 10:58:56;;;;;;;9.45;0.90;;;18.50;99.90;;;;;;5045577;28;20057;-60
2022/07/26 11:01:22;;;;;;;7.78;1.33;;;18.70;99.90;;;;;;5040990;28;20526;-58
2022/07/26 11:03:47;;;;;;;9.05;2.08;;;18.80;99.90;;;;;;5038834;28;20040;-60
2022/07/26 11:06:17;;;;;;;8.27;1.50;;;18.50;99.90;;;;;;5046382;28;20095;-60
2022/07/26 11:08:46;;;;;;;14.52;2.35;;;18.80;99.90;;;;;;5032832;28;20083;-58
2022/07/26 11:11:13;;;;;;;8.57;1.40;;;18.90;99.90;;;;;;5051787;28;20434;-60
2022/07/26 11:13:39;;;;;;;6.45;1.20;;;18.80;99.90;;;;;;5041594;28;20041;-58
2022/07/26 11:16:07;;;;;;;9.00;1.58;;;18.70;99.90;;;;;;5032738;28;20033;-58
2022/07/26 11:18:36;;;;;;;5.93;1.00;;;18.80;99.90;;;;;;5042645;28;20029;-58
2022/07/26 11:21:16;;;;;;;6.47;1.00;;;18.90;99.90;;;;;;5051193;28;20045;-58
2022/07/26 11:23:43;;;;;;;5.63;1.38;;;18.90;99.90;;;;;;5052329;28;20115;-58
2022/07/26 11:26:13;;;;;;;4.85;1.17;;;19.00;99.90;;;;;;5038485;28;20041;-58
2022/07/26 11:29:00;;;;;;;9.02;1.65;;;19.20;99.90;;;;;;5052769;28;20391;-58
2022/07/26 11:31:40;;;;;;;7.68;0.90;;;18.90;99.90;;;;;;5050799;28;20041;-59
2022/07/26 11:34:15;;;;;;;3.70;0.93;;;19.10;99.90;;;;;;5052085;28;20045;-58
2022/07/26 11:36:43;;;;;;;3.95;0.70;;;19.30;99.90;;;;;;5052189;28;20514;-59
2022/07/26 11:39:13;;;;;;;5.47;1.23;;;19.10;99.90;;;;;;5052507;28;20037;-59
2022/07/26 11:41:41;;;;;;;3.05;0.80;;;19.10;99.90;;;;;;5052245;28;20045;-58
2022/07/26 11:44:15;;;;;;;5.53;0.80;;;19.10;99.90;;;;;;5052461;28;20044;-58
2022/07/26 11:46:46;;;;;;;6.13;0.85;;;19.30;99.90;;;;;;5049946;28;20047;-60
2022/07/26 11:49:20;;;;;;;7.65;0.90;;;19.30;99.90;;;;;;5038402;28;20450;-57
2022/07/26 11:52:02;;;;;;;6.95;0.93;;;19.30;99.90;;;;;;5052608;28;20091;-59
2022/07/26 11:54:31;;;;;;;7.68;1.05;;;19.40;99.90;;;;;;5032129;28;20392;-58
2022/07/26 11:57:03;;;;;;;4.65;0.90;;;19.60;99.90;;;;;;5031907;28;20062;-59
2022/07/26 11:59:34;;;;;;;4.00;0.68;;;19.30;99.90;;;;;;5038969;28;20120;-58
2022/07/26 12:02:01;;;;;;;8.77;0.75;;;19.60;99.90;;;;;;5039102;28;20037;-59
2022/07/26 12:04:29;;;;;;;3.17;0.55;;;19.70;99.90;;;;;;5037775;28;20033;-58
2022/07/26 12:06:56;;;;;;;5.57;1.08;;;20.00;99.90;;;;;;5052010;28;20052;-59
2022/07/26 12:09:38;;;;;;;4.45;0.73;;;19.50;99.90;;;;;;5049984;28;20056;-60
2022/07/26 12:12:09;;;;;;;3.45;0.63;;;19.90;99.90;;;;;;5036240;28;20045;-59
2022/07/26 12:14:37;;;;;;;5.80;0.75;;;20.00;99.90;;;;;;5039884;28;20037;-59
2022/07/26 12:17:13;;;;;;;6.18;1.25;;;20.20;99.90;;;;;;5055768;28;20487;-60
2022/07/26 12:19:40;;;;;;;5.65;0.70;;;20.00;99.90;;;;;;5055522;28;20056;-59
2022/07/26 12:22:11;;;;;;;5.47;0.82;;;20.00;99.90;;;;;;5054119;28;20479;-60
2022/07/26 12:24:52;;;;;;;4.88;0.90;;;19.70;99.90;;;;;;5055854;28;20041;-58
2022/07/26 12:27:29;;;;;;;6.70;0.98;;;20.00;99.90;;;;;;5054487;28;20052;-58
2022/07/26 12:30:14;;;;;;;5.82;1.42;;;20.10;99.90;;;;;;5055461;28;20064;-58
2022/07/26 12:32:41;;;;;;;4.70;1.70;;;20.20;99.90;;;;;;5054425;28;20040;-58
2022/07/26 12:35:11;;;;;;;4.43;0.82;;;20.00;99.90;;;;;;5062706;28;20048;-59
2022/07/26 12:37:52;;;;;;;6.13;0.90;;;19.90;99.90;;;;;;5044431;28;20033;-58
2022/07/26 12:40:19;;;;;;;7.53;1.05;;;20.10;99.90;;;;;;5054039;28;20045;-58
2022/07/26 12:42:53;;;;;;;5.90;1.45;;;20.00;99.90;;;;;;5046804;28;20045;-59
2022/07/26 12:45:24;;;;;;;6.70;0.93;;;20.00;99.90;;;;;;5051036;28;20069;-59
2022/07/26 12:47:54;;;;;;;4.70;0.90;;;19.90;99.90;;;;;;5055509;28;20076;-58
2022/07/26 12:50:23;;;;;;;5.05;0.75;;;19.90;99.90;;;;;;5055248;28;20094;-59